Time;durP1;ratioP1;P1;durP2;ratioP2;P2;SDS_P1;SDS_P2;PMS_P1;PMS_P2;Temp;Humidity;BMP_temperature;BMP_pressure;BME280_temperature;BME280_humidity;BME280_pressure;Samples;Min_cycle;Max_cycle;Signal;HPM_P1;HPM_P2
2021/05/22 00:02:12;;;;;;;9.32;6.03;;;11.50;99.90;;;;;;5053066;28;20359;-82
2021/05/22 00:04:37;;;;;;;7.07;5.28;;;11.50;99.90;;;;;;5054213;28;20093;-81
2021/05/22 00:07:03;;;;;;;6.70;5.95;;;11.50;99.90;;;;;;5053058;28;20021;-82
2021/05/22 00:09:28;;;;;;;8.05;5.80;;;11.60;99.90;;;;;;5052926;28;20513;-82
2021/05/22 00:11:54;;;;;;;8.45;5.50;;;11.50;99.90;;;;;;5052903;28;20021;-81
2021/05/22 00:14:20;;;;;;;9.07;6.20;;;11.50;99.90;;;;;;5052768;28;20119;-82
2021/05/22 00:16:45;;;;;;;8.45;5.97;;;11.50;99.90;;;;;;5053710;28;20394;-82
2021/05/22 00:19:11;;;;;;;10.00;6.05;;;11.50;99.90;;;;;;5052717;28;20460;-82
2021/05/22 00:21:37;;;;;;;9.77;6.50;;;11.50;99.90;;;;;;5053869;28;20112;-82
2021/05/22 00:24:03;;;;;;;6.38;5.47;;;11.50;99.90;;;;;;5053015;28;20049;-82
2021/05/22 00:26:29;;;;;;;8.73;5.85;;;11.40;99.90;;;;;;5035709;28;20044;-82
2021/05/22 00:28:54;;;;;;;7.57;5.82;;;11.50;99.90;;;;;;5052775;28;20021;-82
2021/05/22 00:31:20;;;;;;;8.98;6.38;;;11.50;99.90;;;;;;5052495;28;20029;-82
2021/05/22 00:33:45;;;;;;;8.27;6.07;;;11.60;99.90;;;;;;5052440;28;20372;-81
2021/05/22 00:36:11;;;;;;;8.82;7.15;;;11.60;99.90;;;;;;5052495;28;20028;-82
2021/05/22 00:38:37;;;;;;;11.30;7.53;;;11.60;99.90;;;;;;5053509;28;20474;-82
2021/05/22 00:41:02;;;;;;;13.07;8.90;;;11.60;99.90;;;;;;5053237;28;20017;-82
2021/05/22 00:43:28;;;;;;;12.48;9.18;;;11.60;99.90;;;;;;5053448;28;20033;-82
2021/05/22 00:45:54;;;;;;;8.60;6.97;;;11.60;99.90;;;;;;5053556;28;20070;-82
2021/05/22 00:48:21;;;;;;;7.80;6.28;;;11.60;99.90;;;;;;5053439;28;20029;-84
2021/05/22 00:50:50;;;;;;;10.68;6.57;;;11.50;99.90;;;;;;5052198;28;20022;-82
2021/05/22 00:53:17;;;;;;;11.23;6.43;;;11.50;99.90;;;;;;5052013;28;20166;-82
2021/05/22 00:55:43;;;;;;;9.63;6.40;;;11.40;99.90;;;;;;5052126;28;20113;-82
2021/05/22 00:58:08;;;;;;;10.23;6.80;;;11.30;99.90;;;;;;5053147;28;20112;-82
2021/05/22 01:00:46;;;;;;;10.40;7.13;;;11.40;99.90;;;;;;5051978;28;20017;-82
2021/05/22 01:03:28;;;;;;;9.45;6.53;;;11.40;99.90;;;;;;5053025;28;20466;-82
2021/05/22 01:06:22;;;;;;;8.53;6.37;;;11.40;99.90;;;;;;5052664;28;20029;-82
2021/05/22 01:08:50;;;;;;;8.38;5.95;;;11.30;99.90;;;;;;5052874;28;20281;-82
2021/05/22 01:11:21;;;;;;;10.88;6.28;;;11.20;99.90;;;;;;5060668;28;20158;-82
2021/05/22 01:13:59;;;;;;;8.53;6.47;;;11.20;99.90;;;;;;5071765;28;20478;-82
2021/05/22 01:16:25;;;;;;;10.65;6.97;;;11.10;99.90;;;;;;5071821;28;20078;-82
2021/05/22 01:18:53;;;;;;;9.18;6.88;;;11.00;99.90;;;;;;5072896;28;20416;-82
2021/05/22 01:21:20;;;;;;;10.02;6.95;;;10.90;99.90;;;;;;5071693;28;20094;-83
2021/05/22 01:23:57;;;;;;;8.55;7.28;;;10.90;99.90;;;;;;5071656;28;20032;-82
2021/05/22 01:26:25;;;;;;;8.30;6.20;;;10.90;99.90;;;;;;5071367;28;20017;-82
2021/05/22 01:28:52;;;;;;;9.43;6.82;;;10.80;99.90;;;;;;5072863;28;20021;-82
2021/05/22 01:31:18;;;;;;;10.20;6.32;;;10.80;99.90;;;;;;5072950;28;20024;-82
2021/05/22 01:33:44;;;;;;;11.18;7.00;;;10.60;99.90;;;;;;5071545;28;20443;-82
2021/05/22 01:36:09;;;;;;;11.10;6.75;;;10.60;99.90;;;;;;5072864;28;20031;-81
2021/05/22 01:38:35;;;;;;;10.48;7.68;;;10.60;99.90;;;;;;5072642;28;20043;-82
2021/05/22 01:41:01;;;;;;;9.93;6.82;;;10.60;99.90;;;;;;5066057;28;20082;-82
2021/05/22 01:43:27;;;;;;;8.70;7.03;;;10.60;99.90;;;;;;5051385;28;20028;-82
2021/05/22 01:45:54;;;;;;;10.70;7.57;;;10.60;99.90;;;;;;5051486;28;20017;-82
2021/05/22 01:48:24;;;;;;;9.93;7.20;;;10.70;99.90;;;;;;5052571;28;20044;-82
2021/05/22 01:51:03;;;;;;;9.63;6.95;;;10.60;99.90;;;;;;5051362;28;20116;-82
2021/05/22 01:53:29;;;;;;;9.48;6.88;;;10.60;99.90;;;;;;5052437;28;20048;-82
2021/05/22 01:55:56;;;;;;;10.45;6.85;;;10.50;99.90;;;;;;5052612;28;20025;-82
2021/05/22 01:58:23;;;;;;;8.57;7.22;;;10.50;99.90;;;;;;5052366;28;20043;-82
2021/05/22 02:00:49;;;;;;;9.00;6.60;;;10.60;99.90;;;;;;5053643;28;20025;-82
2021/05/22 02:03:37;;;;;;;13.60;6.88;;;10.50;99.90;;;;;;5051255;28;20017;-82
2021/05/22 02:06:07;;;;;;;11.55;6.72;;;10.60;99.90;;;;;;5051416;28;20033;-82
2021/05/22 02:08:37;;;;;;;9.73;6.97;;;10.50;99.90;;;;;;5051058;28;20017;-82
2021/05/22 02:11:03;;;;;;;8.77;6.72;;;10.50;99.90;;;;;;5087734;28;20012;-82
2021/05/22 02:13:29;;;;;;;7.03;6.32;;;10.50;99.90;;;;;;5092635;28;20107;-82
2021/05/22 02:16:00;;;;;;;12.13;6.50;;;10.50;99.90;;;;;;5092424;28;20067;-82
2021/05/22 02:18:28;;;;;;;8.73;7.03;;;10.50;99.90;;;;;;5095169;28;20070;-82
2021/05/22 02:20:56;;;;;;;10.82;7.00;;;10.40;99.90;;;;;;5092264;28;20028;-82
2021/05/22 02:23:23;;;;;;;9.82;6.22;;;10.40;99.90;;;;;;5074842;28;20074;-82
2021/05/22 02:25:52;;;;;;;9.10;6.13;;;10.40;99.90;;;;;;5074816;28;20017;-82
2021/05/22 02:28:18;;;;;;;10.00;7.53;;;10.30;99.90;;;;;;5074833;28;20131;-82
2021/05/22 02:30:45;;;;;;;9.43;7.18;;;10.30;99.90;;;;;;5074207;28;20552;-82
2021/05/22 02:33:12;;;;;;;10.60;6.15;;;10.20;99.90;;;;;;5075674;28;20028;-82
2021/05/22 02:35:40;;;;;;;10.48;6.65;;;10.10;99.90;;;;;;5074656;28;20016;-82
2021/05/22 02:38:09;;;;;;;11.43;6.75;;;10.10;99.90;;;;;;5075771;28;20056;-83
2021/05/22 02:40:36;;;;;;;8.48;6.03;;;10.00;99.90;;;;;;5074655;28;20066;-82
2021/05/22 02:43:08;;;;;;;14.82;6.68;;;10.00;99.90;;;;;;5075883;28;20078;-82
2021/05/22 02:45:37;;;;;;;8.50;7.32;;;9.90;99.90;;;;;;5074515;28;20086;-82
2021/05/22 02:48:08;;;;;;;14.45;6.63;;;9.80;99.90;;;;;;5074468;28;20025;-82
2021/05/22 02:50:36;;;;;;;9.75;7.13;;;9.80;99.90;;;;;;5072744;28;20024;-82
2021/05/22 02:53:03;;;;;;;14.75;6.68;;;9.80;99.90;;;;;;5074384;28;20056;-82
2021/05/22 02:55:30;;;;;;;10.68;6.63;;;9.70;99.90;;;;;;5075642;28;20024;-82
2021/05/22 02:57:56;;;;;;;9.88;6.90;;;9.80;99.90;;;;;;5074171;28;20035;-82
2021/05/22 03:00:23;;;;;;;11.05;6.75;;;9.70;99.90;;;;;;5075595;28;20020;-82
2021/05/22 03:02:49;;;;;;;9.68;6.72;;;9.70;99.90;;;;;;5074225;28;20108;-82
2021/05/22 03:05:15;;;;;;;9.38;6.05;;;9.60;99.90;;;;;;5074191;28;20032;-82
2021/05/22 03:07:41;;;;;;;9.98;6.57;;;9.50;99.90;;;;;;5074146;28;20040;-82
2021/05/22 03:10:07;;;;;;;10.25;6.20;;;9.60;99.90;;;;;;5074137;28;20067;-82
2021/05/22 03:12:35;;;;;;;12.98;8.10;;;9.50;99.90;;;;;;5075249;28;20029;-82
2021/05/22 03:15:03;;;;;;;11.02;7.20;;;9.60;99.90;;;;;;5075316;28;20020;-82
2021/05/22 03:17:28;;;;;;;12.25;7.30;;;9.60;99.90;;;;;;5075189;28;20052;-82
2021/05/22 03:19:54;;;;;;;9.45;7.50;;;9.60;99.90;;;;;;5061020;28;20494;-82
2021/05/22 03:22:20;;;;;;;8.18;6.45;;;9.60;99.90;;;;;;5055046;28;20028;-82
2021/05/22 03:24:45;;;;;;;9.80;7.28;;;9.60;99.90;;;;;;5053826;28;20491;-82
2021/05/22 03:27:11;;;;;;;8.15;6.25;;;9.60;99.90;;;;;;5052618;28;20392;-82
2021/05/22 03:29:37;;;;;;;13.30;8.63;;;9.60;99.90;;;;;;5054968;28;20028;-82
2021/05/22 03:32:03;;;;;;;10.88;7.53;;;9.60;99.90;;;;;;5080544;28;20032;-82
2021/05/22 03:34:30;;;;;;;12.77;9.07;;;9.60;99.90;;;;;;5095071;28;20016;-82
2021/05/22 03:36:56;;;;;;;13.18;8.75;;;9.60;99.90;;;;;;5095176;28;20024;-82
2021/05/22 03:39:21;;;;;;;13.60;7.93;;;9.60;99.90;;;;;;5093630;28;20036;-82
2021/05/22 03:41:47;;;;;;;11.65;7.57;;;9.60;99.90;;;;;;5095000;28;20027;-81
2021/05/22 03:44:12;;;;;;;10.98;7.53;;;9.60;99.90;;;;;;5094970;28;20028;-82
2021/05/22 03:46:38;;;;;;;12.88;8.85;;;9.60;99.90;;;;;;5093707;28;20058;-82
2021/05/22 03:49:04;;;;;;;12.90;8.00;;;9.70;99.90;;;;;;5086355;28;20527;-82
2021/05/22 03:51:30;;;;;;;11.65;8.05;;;9.80;99.90;;;;;;5086794;28;20024;-82
2021/05/22 03:53:56;;;;;;;8.88;7.40;;;9.80;99.90;;;;;;5093530;28;20020;-83
2021/05/22 03:56:23;;;;;;;10.63;7.80;;;9.80;99.90;;;;;;5093400;28;20389;-83
2021/05/22 03:58:49;;;;;;;11.82;7.05;;;9.80;99.90;;;;;;5093296;28;20035;-83
2021/05/22 04:01:16;;;;;;;12.43;6.22;;;9.80;99.90;;;;;;5094638;28;20020;-83
2021/05/22 04:03:41;;;;;;;9.23;6.68;;;9.80;99.90;;;;;;5072946;28;20508;-83
2021/05/22 04:06:07;;;;;;;8.00;7.20;;;9.80;99.90;;;;;;5054729;28;20108;-82
2021/05/22 04:08:33;;;;;;;13.07;7.55;;;9.90;99.90;;;;;;5054161;28;20111;-82
2021/05/22 04:10:59;;;;;;;11.10;6.85;;;9.90;99.90;;;;;;5053020;28;20032;-82
2021/05/22 04:13:25;;;;;;;12.32;7.28;;;9.90;99.90;;;;;;5052864;28;20501;-81
2021/05/22 04:15:50;;;;;;;11.05;7.32;;;10.00;99.90;;;;;;5052826;28;20104;-83
2021/05/22 04:18:16;;;;;;;12.18;7.10;;;10.10;99.90;;;;;;5052686;28;20036;-84
2021/05/22 04:20:42;;;;;;;11.95;7.55;;;10.20;99.90;;;;;;5055465;28;20017;-84
2021/05/22 04:23:08;;;;;;;11.50;7.40;;;10.30;99.90;;;;;;5053984;28;20099;-84
2021/05/22 04:25:33;;;;;;;8.90;6.40;;;10.50;99.90;;;;;;5052704;28;20029;-85
2021/05/22 04:27:59;;;;;;;10.77;6.70;;;10.70;99.90;;;;;;5052886;28;20458;-84
2021/05/22 04:30:25;;;;;;;9.23;6.70;;;10.90;99.90;;;;;;5052571;28;20035;-84
2021/05/22 04:32:51;;;;;;;6.78;6.07;;;11.00;99.90;;;;;;5052393;28;20032;-84
2021/05/22 04:35:17;;;;;;;9.00;6.93;;;11.10;99.90;;;;;;5072205;28;20025;-85
2021/05/22 04:37:43;;;;;;;9.63;6.68;;;11.20;99.90;;;;;;5072271;28;20481;-85
2021/05/22 04:40:09;;;;;;;7.78;6.47;;;11.30;99.90;;;;;;5073344;28;20047;-84
2021/05/22 04:42:35;;;;;;;9.63;6.20;;;11.30;99.90;;;;;;5072197;28;20569;-85
2021/05/22 04:45:01;;;;;;;9.63;5.90;;;11.50;99.90;;;;;;5072676;28;20099;-85
2021/05/22 04:47:27;;;;;;;7.97;5.47;;;11.50;99.90;;;;;;5073445;28;20090;-85
2021/05/22 04:49:53;;;;;;;6.13;5.00;;;11.50;99.90;;;;;;5057696;28;20013;-85
2021/05/22 04:52:21;;;;;;;9.27;6.03;;;11.60;99.90;;;;;;5052175;28;20044;-84
2021/05/22 04:54:47;;;;;;;9.45;5.75;;;11.70;99.90;;;;;;5065215;28;20029;-82
2021/05/22 04:57:13;;;;;;;12.85;7.30;;;11.80;99.90;;;;;;5073292;28;20028;-82
2021/05/22 04:59:38;;;;;;;7.93;5.93;;;11.90;99.90;;;;;;5071963;28;20028;-82
2021/05/22 05:02:04;;;;;;;9.35;5.60;;;11.90;99.90;;;;;;5072270;28;20046;-82
2021/05/22 05:04:30;;;;;;;6.50;5.00;;;12.00;99.90;;;;;;5070472;28;20533;-81
2021/05/22 05:06:56;;;;;;;9.85;6.28;;;12.10;99.90;;;;;;5059855;28;20017;-81
2021/05/22 05:09:21;;;;;;;7.57;6.43;;;12.10;99.90;;;;;;5062038;28;20028;-81
2021/05/22 05:11:47;;;;;;;7.80;6.90;;;12.20;99.90;;;;;;5062453;28;20016;-82
2021/05/22 05:14:13;;;;;;;8.40;6.32;;;12.30;99.90;;;;;;5059651;28;20020;-82
2021/05/22 05:16:39;;;;;;;7.97;7.15;;;12.30;99.90;;;;;;5052967;28;20025;-82
2021/05/22 05:19:04;;;;;;;11.27;6.95;;;12.40;99.90;;;;;;5053163;28;20040;-82
2021/05/22 05:21:30;;;;;;;9.85;5.85;;;12.50;99.90;;;;;;5051734;28;20017;-82
2021/05/22 05:23:55;;;;;;;7.00;4.75;;;12.60;99.90;;;;;;5052944;28;20543;-82
2021/05/22 05:26:21;;;;;;;7.35;5.45;;;12.70;99.90;;;;;;5051699;28;20485;-83
2021/05/22 05:28:47;;;;;;;10.75;5.65;;;12.90;99.90;;;;;;5053032;28;20029;-83
2021/05/22 05:31:13;;;;;;;8.30;5.43;;;12.90;99.90;;;;;;5075504;28;20027;-83
2021/05/22 05:33:38;;;;;;;7.80;5.43;;;13.00;99.90;;;;;;5052507;28;20028;-80
2021/05/22 05:36:04;;;;;;;6.78;5.35;;;13.10;99.90;;;;;;5051457;28;20050;-82
2021/05/22 05:38:30;;;;;;;8.00;5.20;;;13.30;99.90;;;;;;5052619;28;20449;-82
2021/05/22 05:40:57;;;;;;;8.27;5.15;;;13.40;99.90;;;;;;5051366;28;20486;-83
2021/05/22 05:43:23;;;;;;;7.80;4.15;;;13.50;99.90;;;;;;5052721;28;20021;-82
2021/05/22 05:45:49;;;;;;;5.30;3.90;;;13.60;98.30;;;;;;5051461;28;20429;-82
2021/05/22 05:48:15;;;;;;;6.13;3.92;;;13.70;94.50;;;;;;5051436;28;20024;-82
2021/05/22 05:50:40;;;;;;;5.05;3.45;;;13.70;94.60;;;;;;5053753;28;20021;-82
2021/05/22 05:53:06;;;;;;;7.20;4.80;;;13.80;95.30;;;;;;5056823;28;20142;-81
2021/05/22 05:55:32;;;;;;;4.60;3.88;;;13.90;95.40;;;;;;5055449;28;20467;-82
2021/05/22 05:57:57;;;;;;;4.82;4.25;;;14.00;94.90;;;;;;5056473;28;20470;-82
2021/05/22 06:00:24;;;;;;;5.63;3.95;;;14.00;96.40;;;;;;5056539;28;20107;-81
2021/05/22 06:02:50;;;;;;;5.25;3.70;;;14.00;98.00;;;;;;5055256;28;20032;-82
2021/05/22 06:05:16;;;;;;;6.05;3.72;;;14.10;99.20;;;;;;5055265;28;20060;-82
2021/05/22 06:07:42;;;;;;;4.05;3.30;;;14.20;98.70;;;;;;5055453;28;20013;-82
2021/05/22 06:10:09;;;;;;;3.97;3.53;;;14.30;98.50;;;;;;5056525;28;20494;-81
2021/05/22 06:12:36;;;;;;;5.03;3.70;;;14.40;99.90;;;;;;5054989;28;20060;-82
2021/05/22 06:17:35;;;;;;;6.88;4.82;;;14.30;99.90;;;;;;5069646;28;20393;-82
2021/05/22 06:20:01;;;;;;;6.68;3.58;;;14.20;99.90;;;;;;5074904;28;20037;-82
2021/05/22 06:22:27;;;;;;;5.10;3.78;;;14.10;99.90;;;;;;5076042;28;20027;-82
2021/05/22 06:24:52;;;;;;;4.45;3.47;;;14.10;99.90;;;;;;5076197;28;20060;-82
2021/05/22 06:27:18;;;;;;;4.38;3.33;;;14.00;99.90;;;;;;5076846;28;20042;-81
2021/05/22 06:29:43;;;;;;;5.10;3.63;;;13.90;99.90;;;;;;5076498;28;20070;-83
2021/05/22 06:32:09;;;;;;;6.07;3.47;;;13.90;99.90;;;;;;5074735;28;20074;-83
2021/05/22 06:34:35;;;;;;;3.55;3.25;;;13.90;99.90;;;;;;5074629;28;20031;-83
2021/05/22 06:37:01;;;;;;;5.78;3.63;;;13.90;99.90;;;;;;5075987;28;20028;-82
2021/05/22 06:39:27;;;;;;;7.15;3.35;;;13.90;99.90;;;;;;5073722;28;20497;-83
2021/05/22 06:41:52;;;;;;;6.07;4.07;;;14.00;99.90;;;;;;5055885;28;20043;-83
2021/05/22 06:44:43;;;;;;;4.45;3.33;;;14.10;99.90;;;;;;5054574;28;20025;-83
2021/05/22 06:47:04;;;;;;;7.07;3.70;;;14.20;99.90;;;;;;5058513;28;20108;-81
2021/05/22 06:49:32;;;;;;;6.72;4.57;;;14.40;99.90;;;;;;5054354;28;20044;-82
2021/05/22 06:52:02;;;;;;;3.75;3.35;;;14.40;99.90;;;;;;5053402;28;20024;-81
2021/05/22 06:54:31;;;;;;;5.43;3.33;;;14.40;99.90;;;;;;5050651;28;20124;-80
2021/05/22 06:56:57;;;;;;;4.97;3.47;;;14.40;99.90;;;;;;5051035;28;20040;-79
2021/05/22 06:59:22;;;;;;;94.13;46.42;;;14.40;99.90;;;;;;5052117;28;20479;-82
2021/05/22 07:01:48;;;;;;;28.83;13.77;;;14.40;99.90;;;;;;5051784;28;20021;-79
2021/05/22 07:04:14;;;;;;;28.58;13.68;;;14.50;99.90;;;;;;5050115;28;20052;-79
2021/05/22 07:06:40;;;;;;;7.28;3.53;;;14.70;99.90;;;;;;5050728;28;20508;-83
2021/05/22 07:09:06;;;;;;;12.13;4.65;;;14.80;99.90;;;;;;5058161;28;20340;-79
2021/05/22 07:11:35;;;;;;;8.23;4.05;;;14.90;99.70;;;;;;5072612;28;20051;-79
2021/05/22 07:14:01;;;;;;;6.32;3.05;;;15.00;99.90;;;;;;5071761;28;20079;-79
2021/05/22 07:16:26;;;;;;;5.88;3.60;;;15.00;96.80;;;;;;5070589;28;20481;-79
2021/05/22 07:18:52;;;;;;;4.63;2.95;;;14.90;99.90;;;;;;5073974;28;20033;-80
2021/05/22 07:21:18;;;;;;;2.92;2.70;;;15.00;99.90;;;;;;5073902;28;20024;-81
2021/05/22 07:23:44;;;;;;;7.47;3.88;;;15.00;99.80;;;;;;5073171;28;20020;-80
2021/05/22 07:26:09;;;;;;;11.02;6.03;;;15.00;99.90;;;;;;5075094;28;20032;-81
2021/05/22 07:28:35;;;;;;;6.03;3.55;;;15.00;97.10;;;;;;5074866;28;20486;-80
2021/05/22 07:31:02;;;;;;;6.35;3.17;;;15.00;96.40;;;;;;5073690;28;20028;-81
2021/05/22 07:33:28;;;;;;;3.20;2.58;;;15.00;97.40;;;;;;5074908;28;20058;-81
2021/05/22 07:35:54;;;;;;;6.05;3.75;;;15.10;95.40;;;;;;5074927;28;20398;-81
2021/05/22 07:38:21;;;;;;;6.93;5.93;;;15.10;91.40;;;;;;5072757;28;20033;-81
2021/05/22 07:40:47;;;;;;;5.65;2.95;;;15.20;89.80;;;;;;5068031;28;20371;-80
2021/05/22 07:43:13;;;;;;;6.72;4.10;;;15.30;86.80;;;;;;5070992;28;20032;-80
2021/05/22 07:45:39;;;;;;;5.35;3.28;;;15.40;86.70;;;;;;5072692;28;20070;-81
2021/05/22 07:48:05;;;;;;;3.95;2.80;;;15.40;90.50;;;;;;5069915;28;20025;-80
2021/05/22 07:50:31;;;;;;;7.25;2.88;;;15.30;88.80;;;;;;5070384;28;20020;-81
2021/05/22 07:52:57;;;;;;;7.25;3.45;;;15.20;87.20;;;;;;5068849;28;20081;-80
2021/05/22 07:55:23;;;;;;;5.78;2.35;;;15.10;87.90;;;;;;5070302;28;20111;-81
2021/05/22 07:57:49;;;;;;;4.90;2.85;;;15.10;86.80;;;;;;5072553;28;20020;-81
2021/05/22 08:00:15;;;;;;;5.80;3.30;;;15.00;87.40;;;;;;5070635;28;20032;-80
2021/05/22 08:02:43;;;;;;;5.80;3.42;;;14.90;83.90;;;;;;5072295;28;20024;-80
2021/05/22 08:05:09;;;;;;;6.55;3.85;;;14.90;86.70;;;;;;5071190;28;20154;-81
2021/05/22 08:07:35;;;;;;;7.32;4.03;;;14.80;87.20;;;;;;5072197;28;20035;-80
2021/05/22 08:10:03;;;;;;;5.53;3.60;;;14.80;91.60;;;;;;5069544;28;20032;-81
2021/05/22 08:12:29;;;;;;;5.95;3.58;;;14.70;88.80;;;;;;5071015;28;20020;-80
2021/05/22 08:14:54;;;;;;;10.55;3.83;;;14.70;91.10;;;;;;5070443;28;20035;-79
2021/05/22 08:17:20;;;;;;;5.45;3.90;;;14.70;92.00;;;;;;5070573;28;20396;-80
2021/05/22 08:19:46;;;;;;;6.60;4.03;;;14.70;89.80;;;;;;5071574;28;20036;-81
2021/05/22 08:22:12;;;;;;;4.63;3.40;;;14.80;90.90;;;;;;5072571;28;20028;-81
2021/05/22 08:24:38;;;;;;;4.32;3.30;;;14.70;88.50;;;;;;5072648;28;20375;-82
2021/05/22 08:27:03;;;;;;;4.90;3.15;;;14.70;84.20;;;;;;5072691;28;20017;-81
2021/05/22 08:29:29;;;;;;;5.97;3.60;;;14.60;84.60;;;;;;5072519;28;20473;-81
2021/05/22 08:31:55;;;;;;;7.57;3.58;;;14.60;85.60;;;;;;5072552;28;20016;-81
2021/05/22 08:34:20;;;;;;;5.55;4.72;;;14.70;85.50;;;;;;5071777;28;20024;-81
2021/05/22 08:36:46;;;;;;;12.32;6.57;;;14.80;88.40;;;;;;5071869;28;20060;-81
2021/05/22 08:39:12;;;;;;;52.83;24.60;;;14.80;83.70;;;;;;5071583;28;20036;-81
2021/05/22 08:41:38;;;;;;;157.50;67.70;;;14.70;82.00;;;;;;5072381;28;20021;-81
2021/05/22 08:44:04;;;;;;;75.55;39.67;;;14.80;81.60;;;;;;5073601;28;20024;-81
2021/05/22 08:46:31;;;;;;;30.23;18.10;;;14.80;82.00;;;;;;5073556;28;20102;-81
2021/05/22 08:48:57;;;;;;;26.02;15.35;;;14.60;79.00;;;;;;5072195;28;20111;-81
2021/05/22 08:51:23;;;;;;;17.08;9.07;;;14.70;80.10;;;;;;5071970;28;20119;-81
2021/05/22 08:53:49;;;;;;;24.20;15.05;;;14.70;80.30;;;;;;5073380;28;20107;-81
2021/05/22 08:56:15;;;;;;;24.60;15.57;;;14.70;81.90;;;;;;5073428;28;20029;-81
2021/05/22 08:58:41;;;;;;;20.42;12.10;;;14.60;82.90;;;;;;5073223;28;20446;-80
2021/05/22 09:01:06;;;;;;;38.47;21.50;;;14.50;83.30;;;;;;5072103;28;20020;-81
2021/05/22 09:03:32;;;;;;;46.22;24.50;;;14.30;84.40;;;;;;5073201;28;20025;-81
2021/05/22 09:05:58;;;;;;;41.78;23.95;;;14.30;84.90;;;;;;5072006;28;20024;-81
2021/05/22 09:08:24;;;;;;;136.60;62.47;;;14.10;87.30;;;;;;5073074;28;20025;-81
2021/05/22 09:10:53;;;;;;;112.35;55.95;;;13.90;91.40;;;;;;5072016;28;20063;-81
2021/05/22 09:13:27;;;;;;;133.57;64.20;;;13.90;93.80;;;;;;5071739;28;20115;-81
2021/05/22 09:16:00;;;;;;;161.65;79.20;;;13.70;96.60;;;;;;5071796;28;20474;-80
2021/05/22 09:18:31;;;;;;;308.02;132.40;;;13.60;99.90;;;;;;5071637;28;20127;-81
2021/05/22 09:20:59;;;;;;;292.42;128.75;;;13.50;99.90;;;;;;5051349;28;20393;-82
2021/05/22 09:23:31;;;;;;;315.65;140.73;;;13.40;99.90;;;;;;5051438;28;20210;-80
2021/05/22 09:26:19;;;;;;;384.75;172.57;;;13.40;99.90;;;;;;5051715;28;20497;-83
2021/05/22 09:28:50;;;;;;;198.10;84.68;;;13.40;99.90;;;;;;5052639;28;20021;-79
2021/05/22 09:31:21;;;;;;;82.90;36.88;;;13.40;99.90;;;;;;5051296;28;20024;-78
2021/05/22 09:33:48;;;;;;;56.83;30.02;;;13.30;99.90;;;;;;5050936;28;20029;-79
2021/05/22 09:36:16;;;;;;;53.20;26.00;;;13.20;99.90;;;;;;5050887;28;20112;-79
2021/05/22 09:38:46;;;;;;;38.83;20.48;;;13.20;99.90;;;;;;5050707;28;20036;-78
2021/05/22 09:41:32;;;;;;;54.70;27.70;;;13.10;99.90;;;;;;5050615;28;20036;-78
2021/05/22 09:44:07;;;;;;;81.40;39.90;;;12.90;99.90;;;;;;5072347;28;20025;-78
2021/05/22 09:46:45;;;;;;;90.97;34.95;;;12.90;99.90;;;;;;5071414;28;20484;-79
2021/05/22 09:49:26;;;;;;;58.80;26.25;;;12.80;99.90;;;;;;5069994;28;20021;-79
2021/05/22 09:51:59;;;;;;;92.53;38.55;;;12.60;99.90;;;;;;5054147;28;20108;-79
2021/05/22 09:54:46;;;;;;;68.50;32.78;;;12.60;99.90;;;;;;5047310;28;20368;-79
2021/05/22 09:57:20;;;;;;;61.05;30.75;;;12.50;99.90;;;;;;5047547;28;20403;-78
2021/05/22 10:00:07;;;;;;;53.85;28.83;;;12.50;99.90;;;;;;5048677;28;20029;-79
2021/05/22 10:03:01;;;;;;;50.78;26.00;;;12.30;99.90;;;;;;5048572;28;20098;-79
2021/05/22 10:05:32;;;;;;;51.67;25.58;;;12.30;99.90;;;;;;5047430;28;20094;-79
2021/05/22 10:07:58;;;;;;;72.25;33.72;;;12.30;99.90;;;;;;5049951;28;20033;-79
2021/05/22 10:10:38;;;;;;;64.68;32.10;;;12.20;99.90;;;;;;5051231;28;20021;-79
2021/05/22 10:13:08;;;;;;;43.20;34.35;;;12.30;99.90;;;;;;5051234;28;20048;-79
2021/05/22 10:15:34;;;;;;;27.85;20.55;;;12.10;99.90;;;;;;5051231;28;20107;-79
2021/05/22 10:17:59;;;;;;;15.93;10.90;;;12.10;99.90;;;;;;5052268;28;20167;-78
2021/05/22 10:20:25;;;;;;;44.00;21.85;;;12.00;99.90;;;;;;5051183;28;20062;-79
2021/05/22 10:22:51;;;;;;;36.00;18.83;;;11.90;99.90;;;;;;5051066;28;20021;-79
2021/05/22 10:25:18;;;;;;;24.50;15.40;;;11.80;99.90;;;;;;5052368;28;20036;-79
2021/05/22 10:27:43;;;;;;;26.48;13.57;;;11.70;99.90;;;;;;5050744;28;20497;-79
2021/05/22 10:30:10;;;;;;;25.63;14.80;;;11.60;99.90;;;;;;5052396;28;20052;-79
2021/05/22 10:32:38;;;;;;;28.77;15.82;;;11.60;99.90;;;;;;5052083;28;20025;-79
2021/05/22 10:35:09;;;;;;;83.88;48.22;;;11.60;99.90;;;;;;5050944;28;20021;-79
2021/05/22 10:37:36;;;;;;;43.05;18.42;;;11.50;99.90;;;;;;5052197;28;20057;-79
2021/05/22 10:40:03;;;;;;;17.45;12.15;;;11.40;99.90;;;;;;5049829;28;20045;-79
2021/05/22 10:42:32;;;;;;;17.88;10.63;;;11.40;99.90;;;;;;5050120;28;20029;-79
2021/05/22 10:44:59;;;;;;;34.28;15.88;;;11.40;99.90;;;;;;5052578;28;20035;-79
2021/05/22 10:47:29;;;;;;;20.27;14.30;;;11.40;99.90;;;;;;5047205;28;20040;-79
2021/05/22 10:49:56;;;;;;;20.70;13.07;;;11.40;99.90;;;;;;5068504;28;20559;-79
2021/05/22 10:52:23;;;;;;;22.60;13.45;;;11.50;99.90;;;;;;5070064;28;20073;-78
2021/05/22 10:55:09;;;;;;;19.08;13.68;;;11.60;99.90;;;;;;5070943;28;20520;-79
2021/05/22 10:58:00;;;;;;;16.35;11.43;;;11.70;99.90;;;;;;5069176;28;20147;-79
2021/05/22 11:00:26;;;;;;;19.52;13.15;;;11.80;99.90;;;;;;5066337;28;20136;-79
2021/05/22 11:02:58;;;;;;;14.50;11.02;;;11.90;99.90;;;;;;5070059;28;20569;-79
2021/05/22 11:08:09;;;;;;;11.90;8.75;;;12.10;99.90;;;;;;5071524;28;20044;-79
2021/05/22 11:10:38;;;;;;;10.40;7.80;;;12.10;99.90;;;;;;5069792;28;20391;-79
2021/05/22 11:13:07;;;;;;;11.57;8.20;;;12.10;99.90;;;;;;5070072;28;20056;-79
2021/05/22 11:15:44;;;;;;;9.80;8.50;;;12.20;99.90;;;;;;5074951;28;20025;-79
2021/05/22 11:18:10;;;;;;;11.30;9.13;;;12.30;99.90;;;;;;5073955;28;20032;-79
2021/05/22 11:20:37;;;;;;;10.98;8.05;;;12.50;99.90;;;;;;5073891;28;20382;-79
2021/05/22 11:23:03;;;;;;;14.05;8.60;;;12.60;99.90;;;;;;5073762;28;20527;-79
2021/05/22 11:25:47;;;;;;;52.30;30.90;;;12.70;99.90;;;;;;5073951;28;20129;-79
2021/05/22 11:28:19;;;;;;;26.67;14.05;;;12.70;99.90;;;;;;5073778;28;20478;-79
2021/05/22 11:30:47;;;;;;;28.30;14.68;;;12.70;99.90;;;;;;5075226;28;20025;-78
2021/05/22 11:33:22;;;;;;;18.85;10.15;;;12.60;99.90;;;;;;5075070;28;20028;-78
2021/05/22 11:35:51;;;;;;;13.07;8.07;;;12.40;99.90;;;;;;5075003;28;20036;-78
2021/05/22 11:38:20;;;;;;;9.95;6.72;;;12.40;99.90;;;;;;5074814;28;20035;-78
2021/05/22 11:40:48;;;;;;;6.93;4.88;;;12.30;99.90;;;;;;5074082;28;20662;-79
2021/05/22 11:43:13;;;;;;;7.03;4.53;;;12.20;99.90;;;;;;5073733;28;20025;-78
2021/05/22 11:45:41;;;;;;;6.05;4.20;;;12.00;99.90;;;;;;5072614;28;20085;-78
2021/05/22 11:48:28;;;;;;;5.55;3.35;;;11.90;99.90;;;;;;5072425;28;20025;-79
2021/05/22 11:51:07;;;;;;;6.15;3.90;;;11.70;99.90;;;;;;5073396;28;20032;-79
2021/05/22 11:53:34;;;;;;;4.72;3.78;;;11.60;99.90;;;;;;5073338;28;20056;-79
2021/05/22 11:56:11;;;;;;;6.80;3.78;;;11.30;99.90;;;;;;5074717;28;20013;-78
2021/05/22 11:58:38;;;;;;;8.85;5.47;;;11.10;99.90;;;;;;5074437;28;20041;-79
2021/05/22 12:01:19;;;;;;;6.53;4.50;;;11.20;99.90;;;;;;5073280;28;20028;-79
2021/05/22 12:03:47;;;;;;;7.18;4.88;;;11.10;99.90;;;;;;5073073;28;20020;-79
2021/05/22 12:06:30;;;;;;;11.68;7.22;;;11.10;99.90;;;;;;5073017;28;20028;-79
2021/05/22 12:09:30;;;;;;;8.38;6.50;;;11.10;99.90;;;;;;5073009;28;20074;-78
2021/05/22 12:12:11;;;;;;;8.35;5.82;;;11.10;99.90;;;;;;5074111;28;20492;-79
2021/05/22 12:14:42;;;;;;;16.95;7.50;;;11.20;99.90;;;;;;5072960;28;20133;-78
2021/05/22 12:17:09;;;;;;;11.00;6.22;;;11.10;99.90;;;;;;5072833;28;20024;-78
2021/05/22 12:19:39;;;;;;;9.60;7.28;;;11.00;99.90;;;;;;5072746;28;20032;-78
2021/05/22 12:22:05;;;;;;;9.90;6.70;;;11.10;99.90;;;;;;5072731;28;20493;-79
2021/05/22 12:24:31;;;;;;;11.43;7.85;;;11.10;99.90;;;;;;5072355;28;20025;-79
2021/05/22 12:26:58;;;;;;;14.60;8.10;;;11.20;99.90;;;;;;5073983;28;20021;-79
2021/05/22 12:29:25;;;;;;;14.07;8.75;;;11.30;99.90;;;;;;5073865;28;20028;-78
2021/05/22 12:31:55;;;;;;;17.05;9.98;;;11.40;99.90;;;;;;5073816;28;20067;-79
2021/05/22 12:34:26;;;;;;;13.85;9.38;;;11.50;99.90;;;;;;5072472;28;20020;-79
2021/05/22 12:36:57;;;;;;;10.52;8.73;;;11.60;99.90;;;;;;5073775;28;20031;-79
2021/05/22 12:39:24;;;;;;;11.20;8.60;;;11.80;99.90;;;;;;5072293;28;20039;-78
2021/05/22 12:41:50;;;;;;;11.95;8.23;;;12.00;99.90;;;;;;5073692;28;20021;-78
2021/05/22 12:44:21;;;;;;;13.13;8.32;;;12.30;99.90;;;;;;5073606;28;20035;-78
2021/05/22 12:46:58;;;;;;;12.27;8.13;;;12.50;99.90;;;;;;5073596;28;20027;-78
2021/05/22 12:49:31;;;;;;;8.20;5.95;;;12.70;99.90;;;;;;5072219;28;20021;-78
2021/05/22 12:52:13;;;;;;;;;;;12.80;99.90;;;;;;5073966;28;20042;-79